createdAt,value
2022-12-11T00:00:00.592Z,85.56
2022-12-11T00:01:00.601Z,85.77
2022-12-11T00:02:00.677Z,85.56
2022-12-11T00:03:00.618Z,85.31
2022-12-11T00:04:00.532Z,85.42
2022-12-11T00:05:00.551Z,85.31
2022-12-11T00:06:00.530Z,84.79
2022-12-11T00:07:00.514Z,84.47
2022-12-11T00:08:00.556Z,84.68
2022-12-11T00:09:00.484Z,84.79
2022-12-11T00:10:00.499Z,84.58
2022-12-11T00:11:00.494Z,84.47
2022-12-11T00:12:00.439Z,84.58
2022-12-11T00:13:00.452Z,84.79
2022-12-11T00:14:00.454Z,85.00
2022-12-11T00:15:00.494Z,85.10
2022-12-11T00:16:00.464Z,85.10
2022-12-11T00:17:00.415Z,85.10
2022-12-11T00:18:00.398Z,85.21
2022-12-11T00:19:00.378Z,85.42
2022-12-11T00:20:00.378Z,85.10
2022-12-11T00:21:00.475Z,85.00
2022-12-11T00:22:00.362Z,85.00
2022-12-11T00:23:00.311Z,84.68
2022-12-11T00:24:00.329Z,84.58
2022-12-11T00:25:00.306Z,84.33
2022-12-11T00:26:00.283Z,84.22
2022-12-11T00:27:00.295Z,84.22
2022-12-11T00:28:00.307Z,84.22
2022-12-11T00:29:00.256Z,84.01
2022-12-11T00:30:00.251Z,84.22
2022-12-11T00:31:00.214Z,84.12
2022-12-11T00:32:00.255Z,83.91
2022-12-11T00:33:00.227Z,84.01
2022-12-11T00:34:00.196Z,84.01
2022-12-11T00:35:00.177Z,83.70
2022-12-11T00:36:00.174Z,83.81
2022-12-11T00:37:00.258Z,83.70
2022-12-11T00:38:00.158Z,83.81
2022-12-11T00:39:00.173Z,83.59
2022-12-11T00:40:00.129Z,83.28
2022-12-11T00:41:00.150Z,82.97
2022-12-11T00:42:00.129Z,83.07
2022-12-11T00:43:00.085Z,83.49
2022-12-11T00:44:00.076Z,83.39
2022-12-11T00:45:00.069Z,83.59
2022-12-11T00:46:00.209Z,83.70
2022-12-11T00:47:00.092Z,83.59
2022-12-11T00:48:00.056Z,83.49
2022-12-11T00:49:00.028Z,83.39
2022-12-11T00:50:00.024Z,83.59
2022-12-11T00:50:59.987Z,83.59
2022-12-11T00:52:00.031Z,83.07
2022-12-11T00:53:00.022Z,83.18
2022-12-11T00:53:59.990Z,83.49
2022-12-11T00:54:59.962Z,83.70
2022-12-11T00:55:59.938Z,83.91
2022-12-11T00:56:59.964Z,83.91
2022-12-11T00:57:59.940Z,83.81
2022-12-11T00:58:59.960Z,83.81
2022-12-11T00:59:59.900Z,83.91
2022-12-11T01:00:59.922Z,83.81
2022-12-11T01:01:59.858Z,83.91
2022-12-11T01:03:00.017Z,84.12
2022-12-11T01:03:59.882Z,84.47
2022-12-11T01:04:59.883Z,84.47
2022-12-11T01:05:59.864Z,84.37
2022-12-11T01:06:59.840Z,84.27
2022-12-11T01:07:59.857Z,83.64
2022-12-11T01:08:59.805Z,83.84
2022-12-11T01:09:59.793Z,84.27
2022-12-11T01:10:59.800Z,83.84
2022-12-11T01:11:59.749Z,84.20
2022-12-11T01:12:59.760Z,84.72
2022-12-11T01:13:59.731Z,84.51
2022-12-11T01:14:59.735Z,84.41
2022-12-11T01:15:59.724Z,84.62
2022-12-11T01:16:59.757Z,84.62
2022-12-11T01:17:59.739Z,84.62
2022-12-11T01:18:59.695Z,84.51
2022-12-11T01:19:59.701Z,84.30
2022-12-11T01:20:59.675Z,83.78
2022-12-11T01:21:59.676Z,83.88
2022-12-11T01:22:59.621Z,83.95
2022-12-11T01:23:59.665Z,83.84
2022-12-11T01:24:59.615Z,83.74
2022-12-11T01:25:59.608Z,83.53
2022-12-11T01:26:59.616Z,83.53
2022-12-11T01:27:59.608Z,83.11
2022-12-11T01:28:59.552Z,83.11
2022-12-11T01:29:59.556Z,83.22
2022-12-11T01:30:59.598Z,83.01
2022-12-11T01:31:59.523Z,83.01
2022-12-11T01:32:59.534Z,83.32
2022-12-11T01:33:59.534Z,83.95
2022-12-11T01:34:59.506Z,83.84
2022-12-11T01:35:59.475Z,83.74
2022-12-11T01:36:59.485Z,83.95
2022-12-11T01:37:59.460Z,84.16
2022-12-11T01:38:59.464Z,84.37
2022-12-11T01:39:59.469Z,84.37
2022-12-11T01:40:59.415Z,83.95
2022-12-11T01:41:59.423Z,83.95
2022-12-11T01:42:59.395Z,83.84
2022-12-11T01:43:59.422Z,83.84
2022-12-11T01:44:59.414Z,83.53
2022-12-11T01:45:59.411Z,83.67
2022-12-11T01:46:59.389Z,84.20
2022-12-11T01:47:59.335Z,84.72
2022-12-11T01:48:59.331Z,84.83
2022-12-11T01:49:59.326Z,84.89
2022-12-11T01:50:59.379Z,85.00
2022-12-11T01:51:59.287Z,85.10
2022-12-11T01:52:59.290Z,85.00
2022-12-11T01:53:59.287Z,85.00
2022-12-11T01:54:59.267Z,85.21
2022-12-11T01:55:59.267Z,84.79
2022-12-11T01:56:59.256Z,84.89
2022-12-11T01:57:59.231Z,84.89
2022-12-11T01:58:59.222Z,84.89
2022-12-11T01:59:59.191Z,85.00
2022-12-11T02:00:59.316Z,85.42
2022-12-11T02:01:59.198Z,85.83
2022-12-11T02:02:59.184Z,86.15
2022-12-11T02:03:59.161Z,86.57
2022-12-11T02:04:59.139Z,86.57
2022-12-11T02:05:59.148Z,86.68
2022-12-11T02:06:59.149Z,86.78
2022-12-11T02:07:59.123Z,87.09
2022-12-11T02:08:59.132Z,87.09
2022-12-11T02:09:59.144Z,87.09
2022-12-11T02:10:59.084Z,86.88
2022-12-11T02:11:59.075Z,86.68
2022-12-11T02:12:59.040Z,86.57
2022-12-11T02:13:59.030Z,86.78
2022-12-11T02:14:59.071Z,86.88
2022-12-11T02:15:59.093Z,87.20
2022-12-11T02:16:59.026Z,87.09
2022-12-11T02:17:59.018Z,87.34
2022-12-11T02:18:58.994Z,87.34
2022-12-11T02:19:58.975Z,87.24
2022-12-11T02:20:59.046Z,87.55
2022-12-11T02:21:58.954Z,87.76
2022-12-11T02:22:58.954Z,87.59
2022-12-11T02:23:58.922Z,87.59
2022-12-11T02:24:58.931Z,87.59
2022-12-11T02:25:58.920Z,87.70
2022-12-11T02:26:58.896Z,88.01
2022-12-11T02:27:58.907Z,88.01
2022-12-11T02:28:58.862Z,88.01
2022-12-11T02:29:58.888Z,88.12
2022-12-11T02:30:58.929Z,88.01
2022-12-11T02:31:58.813Z,88.22
2022-12-11T02:32:58.821Z,88.22
2022-12-11T02:33:58.826Z,88.22
2022-12-11T02:34:58.786Z,88.18
2022-12-11T02:35:58.803Z,88.18
2022-12-11T02:36:58.792Z,87.97
2022-12-11T02:37:58.754Z,87.76
2022-12-11T02:38:58.764Z,87.55
2022-12-11T02:39:58.749Z,87.80
2022-12-11T02:40:58.749Z,87.97
2022-12-11T02:41:58.769Z,87.97
2022-12-11T02:42:58.730Z,87.97
2022-12-11T02:43:58.692Z,87.87
2022-12-11T02:44:58.664Z,87.55
2022-12-11T02:45:58.708Z,87.34
2022-12-11T02:46:58.668Z,87.13
2022-12-11T02:47:58.767Z,87.24
2022-12-11T02:48:58.626Z,86.92
2022-12-11T02:49:58.628Z,87.03
2022-12-11T02:50:58.638Z,87.13
2022-12-11T02:51:58.585Z,87.24
2022-12-11T02:52:58.576Z,87.13
2022-12-11T02:53:58.642Z,87.13
2022-12-11T02:54:58.569Z,86.92
2022-12-11T02:55:58.580Z,87.13
2022-12-11T02:56:58.526Z,87.13
2022-12-11T02:57:58.526Z,87.24
2022-12-11T02:58:58.933Z,86.92
2022-12-11T02:59:58.540Z,87.03
2022-12-11T03:00:58.565Z,86.92
2022-12-11T03:01:58.574Z,87.03
2022-12-11T03:02:58.466Z,86.82
2022-12-11T03:03:58.461Z,86.40
2022-12-11T03:04:58.487Z,86.29
2022-12-11T03:05:58.437Z,86.29
2022-12-11T03:06:58.419Z,86.08
2022-12-11T03:07:58.463Z,86.08
2022-12-11T03:08:58.411Z,85.98
2022-12-11T03:09:58.441Z,85.46
2022-12-11T03:10:58.412Z,85.35
2022-12-11T03:11:58.378Z,85.56
2022-12-11T03:12:58.361Z,85.25
2022-12-11T03:13:58.371Z,85.25
2022-12-11T03:14:58.359Z,85.25
2022-12-11T03:15:58.393Z,85.25
2022-12-11T03:16:58.329Z,85.35
2022-12-11T03:17:58.329Z,85.56
2022-12-11T03:18:58.283Z,85.46
2022-12-11T03:19:58.273Z,85.35
2022-12-11T03:20:58.292Z,85.56
2022-12-11T03:21:58.241Z,85.77
2022-12-11T03:22:58.249Z,85.98
2022-12-11T03:23:58.270Z,86.08
2022-12-11T03:24:58.213Z,86.08
2022-12-11T03:25:58.222Z,86.19
2022-12-11T03:27:00.787Z,86.08
2022-12-11T03:27:58.193Z,85.98
2022-12-11T03:28:58.162Z,85.73
2022-12-11T03:29:58.200Z,85.63
2022-12-11T03:30:58.191Z,85.63
2022-12-11T03:31:58.174Z,85.52
2022-12-11T03:32:58.127Z,85.52
2022-12-11T03:33:58.146Z,85.31
2022-12-11T03:34:58.447Z,85.21
2022-12-11T03:35:58.095Z,85.21
2022-12-11T03:36:58.093Z,85.00
2022-12-11T03:37:58.122Z,85.10
2022-12-11T03:38:58.087Z,85.00
2022-12-11T03:39:58.095Z,85.21
2022-12-11T03:40:58.108Z,85.00
2022-12-11T03:41:58.022Z,84.89
2022-12-11T03:42:58.016Z,84.83
2022-12-11T03:43:58.012Z,84.89
2022-12-11T03:44:57.984Z,85.25
2022-12-11T03:45:58.047Z,84.83
2022-12-11T03:46:57.966Z,84.93
2022-12-11T03:47:57.977Z,85.03
2022-12-11T03:48:57.937Z,85.03
2022-12-11T03:49:57.932Z,84.62
2022-12-11T03:50:57.944Z,84.51
2022-12-11T03:51:57.894Z,84.27
2022-12-11T03:52:57.929Z,84.30
2022-12-11T03:53:57.893Z,84.37
2022-12-11T03:54:57.917Z,84.27
2022-12-11T03:55:57.879Z,84.30
2022-12-11T03:56:57.883Z,84.41
2022-12-11T03:57:57.848Z,84.51
2022-12-11T03:58:57.835Z,84.62
2022-12-11T03:59:57.807Z,84.93
2022-12-11T04:00:57.862Z,84.79
2022-12-11T04:01:57.830Z,84.79
2022-12-11T04:02:57.782Z,84.68
2022-12-11T04:03:57.803Z,84.51
2022-12-11T04:04:57.789Z,84.37
2022-12-11T04:05:57.749Z,84.47
2022-12-11T04:06:57.776Z,84.05
2022-12-11T04:07:57.775Z,84.16
2022-12-11T04:08:57.717Z,84.47
2022-12-11T04:09:57.717Z,84.20
2022-12-11T04:10:57.687Z,84.09
2022-12-11T04:11:57.710Z,84.30
2022-12-11T04:12:57.692Z,84.30
2022-12-11T04:13:57.700Z,84.41
2022-12-11T04:14:57.671Z,84.51
2022-12-11T04:15:57.701Z,84.30
2022-12-11T04:16:57.667Z,84.41
2022-12-11T04:17:57.621Z,84.09
2022-12-11T04:18:57.588Z,84.30
2022-12-11T04:19:57.603Z,84.72
2022-12-11T04:20:57.579Z,84.83
2022-12-11T04:21:57.602Z,84.62
2022-12-11T04:22:57.578Z,84.51
2022-12-11T04:23:57.537Z,84.20
2022-12-11T04:24:57.550Z,83.57
2022-12-11T04:25:57.522Z,83.57
2022-12-11T04:26:57.491Z,83.57
2022-12-11T04:27:57.489Z,83.78
2022-12-11T04:28:57.510Z,83.36
2022-12-11T04:29:57.509Z,83.57
2022-12-11T04:30:57.525Z,83.64
2022-12-11T04:31:57.435Z,83.67
2022-12-11T04:32:57.435Z,83.78
2022-12-11T04:33:57.434Z,83.78
2022-12-11T04:34:57.413Z,83.84
2022-12-11T04:35:57.434Z,83.53
2022-12-11T04:36:57.401Z,83.32
2022-12-11T04:37:57.364Z,82.79
2022-12-11T04:38:57.366Z,82.79
2022-12-11T04:39:57.343Z,82.59
2022-12-11T04:40:57.365Z,82.59
2022-12-11T04:41:57.353Z,82.48
2022-12-11T04:42:57.324Z,82.48
2022-12-11T04:43:57.303Z,82.38
2022-12-11T04:44:57.335Z,82.06
2022-12-11T04:45:57.275Z,81.96
2022-12-11T04:46:57.284Z,81.75
2022-12-11T04:47:57.273Z,81.85
2022-12-11T04:48:58.013Z,82.06
2022-12-11T04:49:57.237Z,82.06
2022-12-11T04:50:57.213Z,81.85
2022-12-11T04:51:57.224Z,81.96
2022-12-11T04:52:57.183Z,81.64
2022-12-11T04:53:57.215Z,81.43
2022-12-11T04:54:57.172Z,81.85
2022-12-11T04:55:57.174Z,81.85
2022-12-11T04:56:57.190Z,81.96
2022-12-11T04:57:57.147Z,81.75
2022-12-11T04:58:57.149Z,81.96
2022-12-11T04:59:57.154Z,81.96
2022-12-11T05:00:57.095Z,82.27
2022-12-11T05:01:57.129Z,82.17
2022-12-11T05:02:57.146Z,82.17
2022-12-11T05:03:57.110Z,82.17
2022-12-11T05:04:57.055Z,82.06
2022-12-11T05:05:57.119Z,81.99
2022-12-11T05:06:57.036Z,82.17
2022-12-11T05:07:57.062Z,82.38
2022-12-11T05:08:57.052Z,82.38
2022-12-11T05:09:57.029Z,82.17
2022-12-11T05:10:56.997Z,81.85
2022-12-11T05:11:57.023Z,81.75
2022-12-11T05:12:56.987Z,81.79
2022-12-11T05:13:56.958Z,81.79
2022-12-11T05:14:56.938Z,81.89
2022-12-11T05:15:57.030Z,82.10
2022-12-11T05:16:56.941Z,82.62
2022-12-11T05:17:56.929Z,82.31
2022-12-11T05:18:56.912Z,82.31
2022-12-11T05:19:56.890Z,81.99
2022-12-11T05:20:56.901Z,82.31
2022-12-11T05:21:57.012Z,82.31
2022-12-11T05:22:56.870Z,81.85
2022-12-11T05:23:56.871Z,81.64
2022-12-11T05:24:56.842Z,81.79
2022-12-11T05:25:56.822Z,81.79
2022-12-11T05:26:56.809Z,81.79
2022-12-11T05:27:56.819Z,81.89
2022-12-11T05:28:56.799Z,81.99
2022-12-11T05:29:59.551Z,82.10
2022-12-11T05:30:56.790Z,82.42
2022-12-11T05:31:56.754Z,82.20
2022-12-11T05:32:56.728Z,82.20
2022-12-11T05:33:56.769Z,82.31
2022-12-11T05:34:56.711Z,82.31
2022-12-11T05:35:56.715Z,82.10
2022-12-11T05:36:56.697Z,82.10
2022-12-11T05:37:56.685Z,81.99
2022-12-11T05:38:56.681Z,81.99
2022-12-11T05:39:56.675Z,82.20
2022-12-11T05:40:56.654Z,82.42
2022-12-11T05:41:56.642Z,82.42
2022-12-11T05:42:56.621Z,81.47
2022-12-11T05:43:56.644Z,81.26
2022-12-11T05:44:56.620Z,81.37
2022-12-11T05:45:56.582Z,80.94
2022-12-11T05:46:56.619Z,80.42
2022-12-11T05:47:56.581Z,80.63
2022-12-11T05:48:56.541Z,80.94
2022-12-11T05:49:56.545Z,80.74
2022-12-11T05:50:56.565Z,80.11
2022-12-11T05:51:56.535Z,79.38
2022-12-11T05:52:56.525Z,79.69
2022-12-11T05:53:56.537Z,79.79
2022-12-11T05:54:56.526Z,79.69
2022-12-11T05:55:56.466Z,79.58
2022-12-11T05:56:56.473Z,79.69
2022-12-11T05:57:56.465Z,80.00
2022-12-11T05:58:56.463Z,80.32
2022-12-11T05:59:56.412Z,79.90
2022-12-11T06:00:56.466Z,80.00
2022-12-11T06:01:56.456Z,79.58
2022-12-11T06:02:56.496Z,79.48
2022-12-11T06:03:56.391Z,79.58
2022-12-11T06:04:56.385Z,79.48
2022-12-11T06:05:56.384Z,79.69
2022-12-11T06:06:56.367Z,79.48
2022-12-11T06:07:56.383Z,79.16
2022-12-11T06:08:56.327Z,79.06
2022-12-11T06:09:56.319Z,79.27
2022-12-11T06:10:56.308Z,79.16
2022-12-11T06:11:56.296Z,79.16
2022-12-11T06:12:56.319Z,79.16
2022-12-11T06:13:56.276Z,79.16
2022-12-11T06:14:56.249Z,79.16
2022-12-11T06:15:56.236Z,79.38
2022-12-11T06:16:56.216Z,79.48
2022-12-11T06:17:56.208Z,79.27
2022-12-11T06:18:58.409Z,79.16
2022-12-11T06:19:56.187Z,79.06
2022-12-11T06:20:56.190Z,79.38
2022-12-11T06:21:56.197Z,79.38
2022-12-11T06:22:56.170Z,79.58
2022-12-11T06:23:56.150Z,79.79
2022-12-11T06:24:56.176Z,79.90
2022-12-11T06:25:56.118Z,80.00
2022-12-11T06:26:56.108Z,80.00
2022-12-11T06:27:56.101Z,80.15
2022-12-11T06:28:56.093Z,80.42
2022-12-11T06:29:56.132Z,80.21
2022-12-11T06:30:56.072Z,79.93
2022-12-11T06:31:56.078Z,79.72
2022-12-11T06:32:56.044Z,79.72
2022-12-11T06:33:56.053Z,79.93
2022-12-11T06:34:56.046Z,79.93
2022-12-11T06:35:56.019Z,79.83
2022-12-11T06:36:55.990Z,80.04
2022-12-11T06:37:55.993Z,80.35
2022-12-11T06:38:56.035Z,80.35
2022-12-11T06:39:55.948Z,80.46
2022-12-11T06:40:55.950Z,80.46
2022-12-11T06:41:55.943Z,80.46
2022-12-11T06:42:55.954Z,80.57
2022-12-11T06:43:55.930Z,80.98
2022-12-11T06:44:55.889Z,81.20
2022-12-11T06:46:00.617Z,81.51
2022-12-11T06:46:56.905Z,81.61
2022-12-11T06:47:55.877Z,81.51
2022-12-11T06:48:55.870Z,81.61
2022-12-11T06:49:55.852Z,81.30
2022-12-11T06:50:55.836Z,81.20
2022-12-11T06:51:55.811Z,80.98
2022-12-11T06:52:55.812Z,81.09
2022-12-11T06:53:55.825Z,81.30
2022-12-11T06:54:55.834Z,81.30
2022-12-11T06:55:55.772Z,81.30
2022-12-11T06:56:55.765Z,81.20
2022-12-11T06:57:55.757Z,81.20
2022-12-11T06:58:55.755Z,81.30
2022-12-11T06:59:55.743Z,81.40
2022-12-11T07:00:55.786Z,81.40
2022-12-11T07:01:55.735Z,81.51
2022-12-11T07:02:55.674Z,81.82
2022-12-11T07:03:55.687Z,81.93
2022-12-11T07:04:55.697Z,82.03
2022-12-11T07:05:55.653Z,81.93
2022-12-11T07:06:55.683Z,81.82
2022-12-11T07:07:55.729Z,81.82
2022-12-11T07:08:55.613Z,81.72
2022-12-11T07:09:55.615Z,81.61
2022-12-11T07:10:55.584Z,81.61
2022-12-11T07:11:55.624Z,81.30
2022-12-11T07:12:55.565Z,80.67
2022-12-11T07:13:55.597Z,80.67
2022-12-11T07:14:55.556Z,80.67
2022-12-11T07:15:55.570Z,80.57
2022-12-11T07:16:55.529Z,80.67
2022-12-11T07:17:55.517Z,80.77
2022-12-11T07:18:55.519Z,80.88
2022-12-11T07:19:55.595Z,80.98
2022-12-11T07:20:55.489Z,80.98
2022-12-11T07:21:55.488Z,80.77
2022-12-11T07:22:55.469Z,80.88
2022-12-11T07:23:55.437Z,80.77
2022-12-11T07:24:55.436Z,81.09
2022-12-11T07:25:55.480Z,81.30
2022-12-11T07:26:55.410Z,81.51
2022-12-11T07:27:55.401Z,81.51
2022-12-11T07:28:55.405Z,81.16
2022-12-11T07:29:55.380Z,81.47
2022-12-11T07:30:55.395Z,81.89
2022-12-11T07:31:55.466Z,81.47
2022-12-11T07:32:55.432Z,81.16
2022-12-11T07:33:55.342Z,80.84
2022-12-11T07:34:55.331Z,80.74
2022-12-11T07:35:55.347Z,80.63
2022-12-11T07:36:55.401Z,80.11
2022-12-11T07:37:55.290Z,80.11
2022-12-11T07:38:55.275Z,80.32
2022-12-11T07:39:55.248Z,80.32
2022-12-11T07:40:55.280Z,80.63
2022-12-11T07:41:55.245Z,80.32
2022-12-11T07:42:55.282Z,79.69
2022-12-11T07:43:55.258Z,78.96
2022-12-11T07:44:55.211Z,79.38
2022-12-11T07:45:55.299Z,79.27
2022-12-11T07:46:55.192Z,78.43
2022-12-11T07:47:55.160Z,78.33
2022-12-11T07:48:55.179Z,78.33
2022-12-11T07:49:55.158Z,78.01
2022-12-11T07:50:55.143Z,77.91
2022-12-11T07:51:55.111Z,77.28
2022-12-11T07:52:55.109Z,77.38
2022-12-11T07:53:55.094Z,77.48
2022-12-11T07:54:55.125Z,77.48
2022-12-11T07:55:55.080Z,77.59
2022-12-11T07:56:55.071Z,77.28
2022-12-11T07:57:55.087Z,77.17
2022-12-11T07:58:55.061Z,77.07
2022-12-11T07:59:55.021Z,77.17
2022-12-11T08:00:55.071Z,76.65
2022-12-11T08:01:55.041Z,76.75
2022-12-11T08:02:55.074Z,76.54
2022-12-11T08:03:54.996Z,76.65
2022-12-11T08:04:54.993Z,77.38
2022-12-11T08:05:54.974Z,77.28
2022-12-11T08:06:54.986Z,77.28
2022-12-11T08:07:55.006Z,77.48
2022-12-11T08:08:54.957Z,77.48
2022-12-11T08:09:54.924Z,77.59
2022-12-11T08:10:54.907Z,78.01
2022-12-11T08:11:54.893Z,77.59
2022-12-11T08:12:54.900Z,77.17
2022-12-11T08:13:54.873Z,77.28
2022-12-11T08:14:54.927Z,77.28
2022-12-11T08:15:55.001Z,77.17
2022-12-11T08:16:54.872Z,77.07
2022-12-11T08:17:54.828Z,77.17
2022-12-11T08:18:54.805Z,77.48
2022-12-11T08:19:54.809Z,78.22
2022-12-11T08:20:54.848Z,77.59
2022-12-11T08:21:54.786Z,77.28
2022-12-11T08:22:59.040Z,77.38
2022-12-11T08:23:54.744Z,77.48
2022-12-11T08:24:54.759Z,77.91
2022-12-11T08:25:54.788Z,77.91
2022-12-11T08:26:54.705Z,77.59
2022-12-11T08:27:54.705Z,77.38
2022-12-11T08:28:54.697Z,76.54
2022-12-11T08:29:54.708Z,76.51
2022-12-11T08:30:54.777Z,76.19
2022-12-11T08:31:54.658Z,76.09
2022-12-11T08:32:54.662Z,75.78
2022-12-11T08:33:54.650Z,76.12
2022-12-11T08:34:54.658Z,76.40
2022-12-11T08:35:54.636Z,75.29
2022-12-11T08:36:54.639Z,74.65
2022-12-11T08:37:54.610Z,74.76
2022-12-11T08:38:54.599Z,75.39
2022-12-11T08:39:54.582Z,75.70
2022-12-11T08:40:54.547Z,75.92
2022-12-11T08:41:54.584Z,76.09
2022-12-11T08:42:54.539Z,76.09
2022-12-11T08:43:54.551Z,75.88
2022-12-11T08:44:54.509Z,75.78
2022-12-11T08:45:54.548Z,75.98
2022-12-11T08:46:54.527Z,75.98
2022-12-11T08:47:54.471Z,75.78
2022-12-11T08:48:54.502Z,75.88
2022-12-11T08:49:54.451Z,76.30
2022-12-11T08:50:54.453Z,76.30
2022-12-11T08:51:54.504Z,75.78
2022-12-11T08:52:54.409Z,76.19
2022-12-11T08:53:54.400Z,76.72
2022-12-11T08:54:54.403Z,76.19
2022-12-11T08:55:54.379Z,76.09
2022-12-11T08:56:57.955Z,75.88
2022-12-11T08:57:54.402Z,76.19
2022-12-11T08:58:54.353Z,76.51
2022-12-11T08:59:54.351Z,76.61
2022-12-11T09:00:54.369Z,76.51
2022-12-11T09:01:54.324Z,76.09
2022-12-11T09:02:54.350Z,76.30
2022-12-11T09:03:54.325Z,76.68
2022-12-11T09:04:54.292Z,77.00
2022-12-11T09:05:54.322Z,76.26
2022-12-11T09:06:54.261Z,76.89
2022-12-11T09:07:54.296Z,75.95
2022-12-11T09:08:54.260Z,75.21
2022-12-11T09:09:54.236Z,76.06
2022-12-11T09:10:54.202Z,75.95
2022-12-11T09:11:54.222Z,75.53
2022-12-11T09:12:54.193Z,75.84
2022-12-11T09:13:54.191Z,76.37
2022-12-11T09:14:54.194Z,76.16
2022-12-11T09:15:54.208Z,75.84
2022-12-11T09:16:54.177Z,76.16
2022-12-11T09:17:54.137Z,75.74
2022-12-11T09:18:54.137Z,76.16
2022-12-11T09:19:54.146Z,76.47
2022-12-11T09:20:54.108Z,76.16
2022-12-11T09:21:54.133Z,76.06
2022-12-11T09:22:54.064Z,75.74
2022-12-11T09:23:54.067Z,75.63
2022-12-11T09:24:54.044Z,75.43
2022-12-11T09:25:54.048Z,75.32
2022-12-11T09:26:54.089Z,75.21
2022-12-11T09:27:54.006Z,75.60
2022-12-11T09:28:54.040Z,75.81
2022-12-11T09:29:54.005Z,75.81
2022-12-11T09:30:54.014Z,75.70
2022-12-11T09:31:54.006Z,75.60
2022-12-11T09:32:53.968Z,75.60
2022-12-11T09:33:53.958Z,75.60
2022-12-11T09:34:53.944Z,76.02
2022-12-11T09:35:53.919Z,75.70
2022-12-11T09:36:53.936Z,75.46
2022-12-11T09:37:53.909Z,75.08
2022-12-11T09:38:53.921Z,75.15
2022-12-11T09:39:53.870Z,75.15
2022-12-11T09:40:53.871Z,75.35
2022-12-11T09:41:53.836Z,74.94
2022-12-11T09:42:53.892Z,74.94
2022-12-11T09:43:53.841Z,74.94
2022-12-11T09:44:53.851Z,74.76
2022-12-11T09:45:53.861Z,75.49
2022-12-11T09:46:53.868Z,75.60
2022-12-11T09:47:53.790Z,75.49
2022-12-11T09:48:53.813Z,75.60
2022-12-11T09:49:53.769Z,75.92
2022-12-11T09:50:53.750Z,76.23
2022-12-11T09:51:53.764Z,76.12
2022-12-11T09:52:53.748Z,76.12
2022-12-11T09:53:53.720Z,76.12
2022-12-11T09:54:53.714Z,75.70
2022-12-11T09:55:53.700Z,75.92
2022-12-11T09:56:53.710Z,76.44
2022-12-11T09:57:53.679Z,76.23
2022-12-11T09:58:53.701Z,76.12
2022-12-11T09:59:53.653Z,76.44
2022-12-11T10:00:53.621Z,76.54
2022-12-11T10:01:53.679Z,76.33
2022-12-11T10:02:53.646Z,76.75
2022-12-11T10:03:53.590Z,77.07
2022-12-11T10:04:53.600Z,76.96
2022-12-11T10:05:53.591Z,76.75
2022-12-11T10:06:53.572Z,76.61
2022-12-11T10:07:53.595Z,76.93
2022-12-11T10:08:53.567Z,76.72
2022-12-11T10:09:53.522Z,76.61
2022-12-11T10:10:53.556Z,76.82
2022-12-11T10:11:56.662Z,76.72
2022-12-11T10:12:53.525Z,76.51
2022-12-11T10:13:53.472Z,76.40
2022-12-11T10:14:53.552Z,75.98
2022-12-11T10:15:53.544Z,75.98
2022-12-11T10:16:53.477Z,75.78
2022-12-11T10:17:53.447Z,75.95
2022-12-11T10:18:53.432Z,75.95
2022-12-11T10:19:53.447Z,75.84
2022-12-11T10:20:53.393Z,75.95
2022-12-11T10:21:53.438Z,75.84
2022-12-11T10:22:53.377Z,75.63
2022-12-11T10:23:53.397Z,75.32
2022-12-11T10:25:54.365Z,75.15
2022-12-11T10:26:53.358Z,75.98
2022-12-11T10:27:53.345Z,75.88
2022-12-11T10:28:53.327Z,75.88
2022-12-11T10:29:53.319Z,75.67
2022-12-11T10:30:53.340Z,75.35
2022-12-11T10:31:53.273Z,75.35
2022-12-11T10:32:53.298Z,75.57
2022-12-11T10:33:53.286Z,75.67
2022-12-11T10:34:53.244Z,75.46
2022-12-11T10:35:53.238Z,75.35
2022-12-11T10:36:57.365Z,75.57
2022-12-11T10:37:54.226Z,75.88
2022-12-11T10:38:53.235Z,75.84
2022-12-11T10:39:53.199Z,75.53
2022-12-11T10:40:53.200Z,74.69
2022-12-11T10:41:53.176Z,74.69
2022-12-11T10:42:53.161Z,74.27
2022-12-11T10:43:53.147Z,74.27
2022-12-11T10:44:53.181Z,73.86
2022-12-11T10:45:53.123Z,73.96
2022-12-11T10:46:53.154Z,74.07
2022-12-11T10:47:53.088Z,74.17
2022-12-11T10:48:53.120Z,73.86
2022-12-11T10:49:53.067Z,73.75
2022-12-11T10:50:53.072Z,74.38
2022-12-11T10:51:53.052Z,74.14
2022-12-11T10:52:53.077Z,73.75
2022-12-11T10:53:53.040Z,73.44
2022-12-11T10:54:53.029Z,73.75
2022-12-11T10:55:53.021Z,74.17
2022-12-11T10:56:52.994Z,74.38
2022-12-11T10:57:52.968Z,74.69
2022-12-11T10:58:53.013Z,74.59
2022-12-11T10:59:52.992Z,74.69
2022-12-11T11:00:52.976Z,74.66
2022-12-11T11:01:53.042Z,74.87
2022-12-11T11:02:52.993Z,74.35
2022-12-11T11:03:52.935Z,74.04
2022-12-11T11:04:52.937Z,73.51
2022-12-11T11:05:52.909Z,73.51
2022-12-11T11:06:52.870Z,73.61
2022-12-11T11:07:52.969Z,74.04
2022-12-11T11:08:52.884Z,73.75
2022-12-11T11:09:52.880Z,74.69
2022-12-11T11:10:52.863Z,74.38
2022-12-11T11:11:52.838Z,74.38
2022-12-11T11:12:52.835Z,73.96
2022-12-11T11:13:52.781Z,74.27
2022-12-11T11:14:52.781Z,73.75
2022-12-11T11:15:52.861Z,74.07
2022-12-11T11:16:52.752Z,73.75
2022-12-11T11:17:55.463Z,73.75
2022-12-11T11:18:52.753Z,73.54
2022-12-11T11:19:52.738Z,73.96
2022-12-11T11:20:52.715Z,73.44
2022-12-11T11:21:52.734Z,73.75
2022-12-11T11:22:52.683Z,73.65
2022-12-11T11:23:53.629Z,73.54
2022-12-11T11:24:52.676Z,73.54
2022-12-11T11:25:52.655Z,74.17
2022-12-11T11:27:53.624Z,73.96
2022-12-11T11:28:52.657Z,74.52
2022-12-11T11:29:53.369Z,74.73
2022-12-11T11:30:52.617Z,74.94
2022-12-11T11:31:52.585Z,74.84
2022-12-11T11:32:52.595Z,74.84
2022-12-11T11:33:52.586Z,74.94
2022-12-11T11:34:52.555Z,74.84
2022-12-11T11:35:52.549Z,74.73
2022-12-11T11:36:52.526Z,75.35
2022-12-11T11:37:52.566Z,75.46
2022-12-11T11:38:52.539Z,75.57
2022-12-11T11:39:52.486Z,75.49
2022-12-11T11:40:52.488Z,75.92
2022-12-11T11:41:52.525Z,75.81
2022-12-11T11:42:52.499Z,75.29
2022-12-11T11:43:52.461Z,74.97
2022-12-11T11:44:52.465Z,75.39
2022-12-11T11:45:52.442Z,75.81
2022-12-11T11:46:52.472Z,75.63
2022-12-11T11:47:52.416Z,76.06
2022-12-11T11:48:52.391Z,76.47
2022-12-11T11:49:52.420Z,76.47
2022-12-11T11:50:52.411Z,76.68
2022-12-11T11:51:52.371Z,76.79
2022-12-11T11:52:52.412Z,76.26
2022-12-11T11:53:52.343Z,76.16
2022-12-11T11:54:52.331Z,76.26
2022-12-11T11:55:52.350Z,76.26
2022-12-11T11:56:52.312Z,76.40
2022-12-11T11:57:52.309Z,76.61
2022-12-11T11:58:52.323Z,76.40
2022-12-11T11:59:52.280Z,76.51
2022-12-11T12:00:52.259Z,76.82
2022-12-11T12:01:52.240Z,77.07
2022-12-11T12:02:52.319Z,77.70
2022-12-11T12:03:52.235Z,78.11
2022-12-11T12:04:52.274Z,78.53
2022-12-11T12:05:52.296Z,78.74
2022-12-11T12:06:52.198Z,78.11
2022-12-11T12:07:52.220Z,78.11
2022-12-11T12:08:52.174Z,78.53
2022-12-11T12:09:52.193Z,78.43
2022-12-11T12:10:52.192Z,77.59
2022-12-11T12:11:52.131Z,77.28
2022-12-11T12:12:52.100Z,77.48
2022-12-11T12:13:52.114Z,77.48
2022-12-11T12:14:52.881Z,77.48
2022-12-11T12:15:52.142Z,77.59
2022-12-11T12:16:53.668Z,77.38
2022-12-11T12:17:55.733Z,76.96
2022-12-11T12:18:52.047Z,76.75
2022-12-11T12:19:52.056Z,76.96
2022-12-11T12:20:52.055Z,77.38
2022-12-11T12:21:52.016Z,77.38
2022-12-11T12:22:52.015Z,77.28
2022-12-11T12:23:51.998Z,77.38
2022-12-11T12:24:51.976Z,78.01
2022-12-11T12:25:52.065Z,78.11
2022-12-11T12:26:51.977Z,78.22
2022-12-11T12:27:53.047Z,78.22
2022-12-11T12:28:51.947Z,78.11
2022-12-11T12:29:51.957Z,78.22
2022-12-11T12:30:51.926Z,77.80
2022-12-11T12:31:51.958Z,77.80
2022-12-11T12:32:51.875Z,77.48
2022-12-11T12:33:51.878Z,77.38
2022-12-11T12:34:51.886Z,77.17
2022-12-11T12:35:51.991Z,77.17
2022-12-11T12:36:51.845Z,77.38
2022-12-11T12:37:51.825Z,77.70
2022-12-11T12:38:51.838Z,77.80
2022-12-11T12:39:51.816Z,77.07
2022-12-11T12:40:51.801Z,76.54
2022-12-11T12:41:51.826Z,76.43
2022-12-11T12:42:51.764Z,76.86
2022-12-11T12:43:51.816Z,77.48
2022-12-11T12:44:51.765Z,76.82
2022-12-11T12:45:51.760Z,76.43
2022-12-11T12:46:51.731Z,75.81
2022-12-11T12:47:53.497Z,75.39
2022-12-11T12:48:51.711Z,75.39
2022-12-11T12:49:51.711Z,75.70
2022-12-11T12:50:51.697Z,76.12
2022-12-11T12:51:51.658Z,75.92
2022-12-11T12:52:51.680Z,75.49
2022-12-11T12:53:51.635Z,75.29